Thurman, New York
Current Conditions -  °F | °C
As of 11:53 AM on Friday 31 Oct 2014 (Local Time) from KGFL Reporting Station
Clear Clear  
Wind Chill: 46°   Ceiling: Unl
Heat Index: 46°   Visibility: 10mi
Dew Point: 33°   Wind: 3mph
Humidity: 61%   Direction: 70°ENE
Pressure: 30.03"   Gusts: NA
Location:  43.4835°N, 73.8027°W
Report Text: KGFL 311553Z AUTO 07003KT 10SM CLR 08/01 A3003 RMK AO2 SLP175 T00780006
Loading
Personal Weather Stations






























Interactive Weather Map
Tropical Storm Tracking
New forecast layout! Learn more

10-Day Weather Forecast

Advertisements
Track Severe Weather on mobile